sensor_id;sensor_type;location;lat;lon;timestamp;P1;durP1;ratioP1;P2;durP2;ratioP2
69381;SDS011;56560;50.692;12.844;2022-07-23T00:00:00;14.73;;;8.57;;
69381;SDS011;56560;50.692;12.844;2022-07-23T00:02:27;15.10;;;8.97;;
69381;SDS011;56560;50.692;12.844;2022-07-23T00:04:52;15.95;;;9.23;;
69381;SDS011;56560;50.692;12.844;2022-07-23T00:07:18;13.90;;;9.30;;
69381;SDS011;56560;50.692;12.844;2022-07-23T00:09:43;14.68;;;9.50;;
69381;SDS011;56560;50.692;12.844;2022-07-23T00:12:09;15.43;;;9.50;;
69381;SDS011;56560;50.692;12.844;2022-07-23T00:14:35;15.23;;;9.27;;
69381;SDS011;56560;50.692;12.844;2022-07-23T00:17:00;16.83;;;9.60;;
69381;SDS011;56560;50.692;12.844;2022-07-23T00:19:26;15.50;;;9.30;;
69381;SDS011;56560;50.692;12.844;2022-07-23T00:21:51;17.27;;;9.52;;
69381;SDS011;56560;50.692;12.844;2022-07-23T00:24:17;17.20;;;9.50;;
69381;SDS011;56560;50.692;12.844;2022-07-23T00:26:43;14.27;;;9.23;;
69381;SDS011;56560;50.692;12.844;2022-07-23T00:29:08;16.83;;;9.37;;
69381;SDS011;56560;50.692;12.844;2022-07-23T00:31:34;15.40;;;9.82;;
69381;SDS011;56560;50.692;12.844;2022-07-23T00:34:00;15.13;;;9.77;;
69381;SDS011;56560;50.692;12.844;2022-07-23T00:36:26;15.15;;;9.30;;
69381;SDS011;56560;50.692;12.844;2022-07-23T00:38:52;14.60;;;9.25;;
69381;SDS011;56560;50.692;12.844;2022-07-23T00:41:18;15.88;;;8.88;;
69381;SDS011;56560;50.692;12.844;2022-07-23T00:43:44;15.27;;;9.05;;
69381;SDS011;56560;50.692;12.844;2022-07-23T00:46:10;14.93;;;8.73;;
69381;SDS011;56560;50.692;12.844;2022-07-23T00:48:35;16.73;;;9.07;;
69381;SDS011;56560;50.692;12.844;2022-07-23T00:51:01;15.33;;;9.20;;
69381;SDS011;56560;50.692;12.844;2022-07-23T00:53:27;16.25;;;8.85;;
69381;SDS011;56560;50.692;12.844;2022-07-23T00:55:53;13.93;;;8.70;;
69381;SDS011;56560;50.692;12.844;2022-07-23T00:58:19;13.77;;;8.93;;
69381;SDS011;56560;50.692;12.844;2022-07-23T01:00:45;13.60;;;8.73;;
69381;SDS011;56560;50.692;12.844;2022-07-23T01:03:11;15.13;;;8.95;;
69381;SDS011;56560;50.692;12.844;2022-07-23T01:05:36;15.90;;;8.93;;
69381;SDS011;56560;50.692;12.844;2022-07-23T01:08:02;15.20;;;8.98;;
69381;SDS011;56560;50.692;12.844;2022-07-23T01:10:30;13.05;;;8.55;;
69381;SDS011;56560;50.692;12.844;2022-07-23T01:12:55;14.67;;;8.80;;
69381;SDS011;56560;50.692;12.844;2022-07-23T01:15:22;15.38;;;9.02;;
69381;SDS011;56560;50.692;12.844;2022-07-23T01:17:48;14.27;;;8.98;;
69381;SDS011;56560;50.692;12.844;2022-07-23T01:20:14;14.30;;;8.95;;
69381;SDS011;56560;50.692;12.844;2022-07-23T01:22:40;14.17;;;8.87;;
69381;SDS011;56560;50.692;12.844;2022-07-23T01:25:06;16.13;;;9.20;;
69381;SDS011;56560;50.692;12.844;2022-07-23T01:27:32;16.23;;;8.90;;
69381;SDS011;56560;50.692;12.844;2022-07-23T01:29:59;15.90;;;9.27;;
69381;SDS011;56560;50.692;12.844;2022-07-23T01:32:25;14.90;;;9.70;;
69381;SDS011;56560;50.692;12.844;2022-07-23T01:34:51;17.63;;;9.98;;
69381;SDS011;56560;50.692;12.844;2022-07-23T01:37:17;13.87;;;8.90;;
69381;SDS011;56560;50.692;12.844;2022-07-23T01:39:42;15.05;;;9.07;;
69381;SDS011;56560;50.692;12.844;2022-07-23T01:42:08;17.63;;;9.70;;
69381;SDS011;56560;50.692;12.844;2022-07-23T01:44:34;14.37;;;8.90;;
69381;SDS011;56560;50.692;12.844;2022-07-23T01:46:59;14.30;;;9.30;;
69381;SDS011;56560;50.692;12.844;2022-07-23T01:49:25;15.30;;;9.20;;
69381;SDS011;56560;50.692;12.844;2022-07-23T01:51:51;14.38;;;9.02;;
69381;SDS011;56560;50.692;12.844;2022-07-23T01:54:29;15.27;;;8.70;;
69381;SDS011;56560;50.692;12.844;2022-07-23T01:56:56;14.95;;;8.77;;
69381;SDS011;56560;50.692;12.844;2022-07-23T01:59:22;17.00;;;8.70;;
69381;SDS011;56560;50.692;12.844;2022-07-23T02:01:49;14.88;;;8.80;;
69381;SDS011;56560;50.692;12.844;2022-07-23T02:04:18;14.52;;;9.15;;
69381;SDS011;56560;50.692;12.844;2022-07-23T02:06:48;14.87;;;8.60;;
69381;SDS011;56560;50.692;12.844;2022-07-23T02:09:14;14.70;;;9.35;;
69381;SDS011;56560;50.692;12.844;2022-07-23T02:11:40;14.57;;;8.88;;
69381;SDS011;56560;50.692;12.844;2022-07-23T02:14:05;14.93;;;8.60;;
69381;SDS011;56560;50.692;12.844;2022-07-23T02:16:31;15.25;;;8.80;;
69381;SDS011;56560;50.692;12.844;2022-07-23T02:18:57;16.73;;;9.50;;
69381;SDS011;56560;50.692;12.844;2022-07-23T02:21:23;15.50;;;9.10;;
69381;SDS011;56560;50.692;12.844;2022-07-23T02:23:49;14.75;;;9.05;;
69381;SDS011;56560;50.692;12.844;2022-07-23T02:26:14;16.83;;;9.45;;
69381;SDS011;56560;50.692;12.844;2022-07-23T02:28:40;14.90;;;9.20;;
69381;SDS011;56560;50.692;12.844;2022-07-23T02:31:05;15.40;;;9.52;;
69381;SDS011;56560;50.692;12.844;2022-07-23T02:33:32;14.25;;;8.95;;
69381;SDS011;56560;50.692;12.844;2022-07-23T02:35:58;14.95;;;9.18;;
69381;SDS011;56560;50.692;12.844;2022-07-23T02:38:24;14.60;;;9.02;;
69381;SDS011;56560;50.692;12.844;2022-07-23T02:40:50;14.32;;;8.52;;
69381;SDS011;56560;50.692;12.844;2022-07-23T02:43:16;15.50;;;8.93;;
69381;SDS011;56560;50.692;12.844;2022-07-23T02:45:41;14.43;;;8.88;;
69381;SDS011;56560;50.692;12.844;2022-07-23T02:48:07;14.37;;;8.87;;
69381;SDS011;56560;50.692;12.844;2022-07-23T02:50:33;14.35;;;8.48;;
69381;SDS011;56560;50.692;12.844;2022-07-23T02:52:58;20.60;;;10.17;;
69381;SDS011;56560;50.692;12.844;2022-07-23T02:55:24;18.80;;;9.67;;
69381;SDS011;56560;50.692;12.844;2022-07-23T02:57:50;17.52;;;9.52;;
69381;SDS011;56560;50.692;12.844;2022-07-23T03:00:15;14.67;;;9.10;;
69381;SDS011;56560;50.692;12.844;2022-07-23T03:02:41;16.15;;;9.55;;
69381;SDS011;56560;50.692;12.844;2022-07-23T03:05:07;15.82;;;9.70;;
69381;SDS011;56560;50.692;12.844;2022-07-23T03:07:33;15.60;;;9.60;;
69381;SDS011;56560;50.692;12.844;2022-07-23T03:09:59;17.27;;;10.10;;
69381;SDS011;56560;50.692;12.844;2022-07-23T03:12:24;15.77;;;9.80;;
69381;SDS011;56560;50.692;12.844;2022-07-23T03:14:50;16.17;;;9.35;;
69381;SDS011;56560;50.692;12.844;2022-07-23T03:17:16;14.93;;;9.40;;
69381;SDS011;56560;50.692;12.844;2022-07-23T03:19:42;15.15;;;9.68;;
69381;SDS011;56560;50.692;12.844;2022-07-23T03:22:07;18.10;;;10.30;;
69381;SDS011;56560;50.692;12.844;2022-07-23T03:24:33;19.58;;;9.98;;
69381;SDS011;56560;50.692;12.844;2022-07-23T03:27:17;16.00;;;9.90;;
69381;SDS011;56560;50.692;12.844;2022-07-23T03:29:43;15.53;;;9.40;;
69381;SDS011;56560;50.692;12.844;2022-07-23T03:32:08;15.15;;;9.82;;
69381;SDS011;56560;50.692;12.844;2022-07-23T03:34:34;17.83;;;9.68;;
69381;SDS011;56560;50.692;12.844;2022-07-23T03:37:01;15.73;;;9.57;;
69381;SDS011;56560;50.692;12.844;2022-07-23T03:39:26;15.63;;;8.88;;
69381;SDS011;56560;50.692;12.844;2022-07-23T03:41:52;16.38;;;9.65;;
69381;SDS011;56560;50.692;12.844;2022-07-23T03:44:18;15.82;;;9.68;;
69381;SDS011;56560;50.692;12.844;2022-07-23T03:46:44;15.47;;;9.73;;
69381;SDS011;56560;50.692;12.844;2022-07-23T03:49:09;17.00;;;10.32;;
69381;SDS011;56560;50.692;12.844;2022-07-23T03:51:35;14.30;;;9.53;;
69381;SDS011;56560;50.692;12.844;2022-07-23T03:54:00;15.67;;;9.57;;
69381;SDS011;56560;50.692;12.844;2022-07-23T03:56:26;16.73;;;9.40;;
69381;SDS011;56560;50.692;12.844;2022-07-23T03:58:52;14.97;;;9.30;;
69381;SDS011;56560;50.692;12.844;2022-07-23T04:01:17;15.25;;;9.40;;
69381;SDS011;56560;50.692;12.844;2022-07-23T04:03:43;15.20;;;9.10;;
69381;SDS011;56560;50.692;12.844;2022-07-23T04:06:09;15.43;;;9.43;;
69381;SDS011;56560;50.692;12.844;2022-07-23T04:08:35;15.50;;;9.45;;
69381;SDS011;56560;50.692;12.844;2022-07-23T04:11:01;14.98;;;9.57;;
69381;SDS011;56560;50.692;12.844;2022-07-23T04:13:26;18.17;;;9.60;;
69381;SDS011;56560;50.692;12.844;2022-07-23T04:15:52;20.15;;;9.10;;
69381;SDS011;56560;50.692;12.844;2022-07-23T04:18:18;14.37;;;9.37;;
69381;SDS011;56560;50.692;12.844;2022-07-23T04:20:44;17.83;;;10.00;;
69381;SDS011;56560;50.692;12.844;2022-07-23T04:23:10;14.80;;;10.05;;
69381;SDS011;56560;50.692;12.844;2022-07-23T04:25:36;16.05;;;10.20;;
69381;SDS011;56560;50.692;12.844;2022-07-23T04:28:01;14.52;;;9.63;;
69381;SDS011;56560;50.692;12.844;2022-07-23T04:30:27;19.60;;;9.60;;
69381;SDS011;56560;50.692;12.844;2022-07-23T04:32:53;15.23;;;9.38;;
69381;SDS011;56560;50.692;12.844;2022-07-23T04:35:18;16.50;;;9.70;;
69381;SDS011;56560;50.692;12.844;2022-07-23T04:37:44;16.70;;;9.25;;
69381;SDS011;56560;50.692;12.844;2022-07-23T04:40:10;15.63;;;9.40;;
69381;SDS011;56560;50.692;12.844;2022-07-23T04:42:37;16.20;;;9.60;;
69381;SDS011;56560;50.692;12.844;2022-07-23T04:45:03;14.63;;;9.27;;
69381;SDS011;56560;50.692;12.844;2022-07-23T04:47:29;14.68;;;9.00;;
69381;SDS011;56560;50.692;12.844;2022-07-23T04:49:55;17.63;;;9.27;;
69381;SDS011;56560;50.692;12.844;2022-07-23T04:52:22;17.88;;;9.32;;
69381;SDS011;56560;50.692;12.844;2022-07-23T04:54:47;15.75;;;9.23;;
69381;SDS011;56560;50.692;12.844;2022-07-23T04:57:13;14.60;;;8.55;;
69381;SDS011;56560;50.692;12.844;2022-07-23T04:59:39;15.40;;;8.53;;
69381;SDS011;56560;50.692;12.844;2022-07-23T05:02:05;18.55;;;8.82;;
69381;SDS011;56560;50.692;12.844;2022-07-23T05:04:30;15.47;;;8.97;;
69381;SDS011;56560;50.692;12.844;2022-07-23T05:06:56;15.50;;;8.75;;
69381;SDS011;56560;50.692;12.844;2022-07-23T05:09:22;14.55;;;8.48;;
69381;SDS011;56560;50.692;12.844;2022-07-23T05:11:48;14.30;;;8.45;;
69381;SDS011;56560;50.692;12.844;2022-07-23T05:14:14;16.77;;;8.90;;
69381;SDS011;56560;50.692;12.844;2022-07-23T05:16:40;14.35;;;8.05;;
69381;SDS011;56560;50.692;12.844;2022-07-23T05:19:05;17.25;;;8.50;;
69381;SDS011;56560;50.692;12.844;2022-07-23T05:21:31;15.67;;;8.53;;
69381;SDS011;56560;50.692;12.844;2022-07-23T05:23:57;15.13;;;8.70;;
69381;SDS011;56560;50.692;12.844;2022-07-23T05:26:23;16.40;;;9.00;;
69381;SDS011;56560;50.692;12.844;2022-07-23T05:28:49;15.00;;;9.20;;
69381;SDS011;56560;50.692;12.844;2022-07-23T05:31:15;18.08;;;9.70;;
69381;SDS011;56560;50.692;12.844;2022-07-23T05:33:40;15.20;;;9.10;;
69381;SDS011;56560;50.692;12.844;2022-07-23T05:36:06;14.70;;;8.98;;
69381;SDS011;56560;50.692;12.844;2022-07-23T05:38:32;16.15;;;10.13;;
69381;SDS011;56560;50.692;12.844;2022-07-23T05:40:58;16.85;;;10.50;;
69381;SDS011;56560;50.692;12.844;2022-07-23T05:43:23;16.90;;;10.53;;
69381;SDS011;56560;50.692;12.844;2022-07-23T05:45:49;19.05;;;10.82;;
69381;SDS011;56560;50.692;12.844;2022-07-23T05:48:15;15.90;;;10.50;;
69381;SDS011;56560;50.692;12.844;2022-07-23T05:50:41;17.38;;;11.15;;
69381;SDS011;56560;50.692;12.844;2022-07-23T05:53:06;17.73;;;11.20;;
69381;SDS011;56560;50.692;12.844;2022-07-23T05:55:32;16.70;;;10.85;;
69381;SDS011;56560;50.692;12.844;2022-07-23T05:57:58;18.42;;;11.98;;
69381;SDS011;56560;50.692;12.844;2022-07-23T06:00:24;19.00;;;11.20;;
69381;SDS011;56560;50.692;12.844;2022-07-23T06:02:51;18.48;;;11.10;;
69381;SDS011;56560;50.692;12.844;2022-07-23T06:05:17;18.17;;;11.35;;
69381;SDS011;56560;50.692;12.844;2022-07-23T06:07:42;19.00;;;11.97;;
69381;SDS011;56560;50.692;12.844;2022-07-23T06:10:08;19.00;;;12.30;;
69381;SDS011;56560;50.692;12.844;2022-07-23T06:12:34;19.13;;;11.90;;
69381;SDS011;56560;50.692;12.844;2022-07-23T06:15:01;19.37;;;11.43;;
69381;SDS011;56560;50.692;12.844;2022-07-23T06:17:26;19.83;;;12.45;;
69381;SDS011;56560;50.692;12.844;2022-07-23T06:19:53;17.55;;;11.38;;
69381;SDS011;56560;50.692;12.844;2022-07-23T06:22:19;19.70;;;11.95;;
69381;SDS011;56560;50.692;12.844;2022-07-23T06:24:45;18.90;;;11.70;;
69381;SDS011;56560;50.692;12.844;2022-07-23T06:27:11;19.48;;;11.98;;
69381;SDS011;56560;50.692;12.844;2022-07-23T06:29:36;22.90;;;13.30;;
69381;SDS011;56560;50.692;12.844;2022-07-23T06:32:02;21.08;;;12.68;;
69381;SDS011;56560;50.692;12.844;2022-07-23T06:34:28;19.03;;;12.40;;
69381;SDS011;56560;50.692;12.844;2022-07-23T06:36:53;20.08;;;12.60;;
69381;SDS011;56560;50.692;12.844;2022-07-23T06:39:19;18.70;;;12.47;;
69381;SDS011;56560;50.692;12.844;2022-07-23T06:41:45;22.08;;;12.95;;
69381;SDS011;56560;50.692;12.844;2022-07-23T06:44:11;23.83;;;14.30;;
69381;SDS011;56560;50.692;12.844;2022-07-23T06:46:36;20.75;;;13.38;;
69381;SDS011;56560;50.692;12.844;2022-07-23T06:49:02;21.50;;;13.27;;
69381;SDS011;56560;50.692;12.844;2022-07-23T06:51:29;21.15;;;12.90;;
69381;SDS011;56560;50.692;12.844;2022-07-23T06:53:55;19.67;;;12.63;;
69381;SDS011;56560;50.692;12.844;2022-07-23T06:56:20;18.80;;;12.33;;
69381;SDS011;56560;50.692;12.844;2022-07-23T06:58:46;26.15;;;14.10;;
69381;SDS011;56560;50.692;12.844;2022-07-23T07:01:12;36.67;;;18.80;;
69381;SDS011;56560;50.692;12.844;2022-07-23T07:03:38;30.60;;;16.48;;
69381;SDS011;56560;50.692;12.844;2022-07-23T07:06:03;24.87;;;13.77;;
69381;SDS011;56560;50.692;12.844;2022-07-23T07:08:29;20.95;;;12.77;;
69381;SDS011;56560;50.692;12.844;2022-07-23T07:10:55;19.63;;;11.47;;
69381;SDS011;56560;50.692;12.844;2022-07-23T07:13:20;21.80;;;11.60;;
69381;SDS011;56560;50.692;12.844;2022-07-23T07:15:46;18.47;;;10.80;;
69381;SDS011;56560;50.692;12.844;2022-07-23T07:18:12;19.20;;;11.77;;
69381;SDS011;56560;50.692;12.844;2022-07-23T07:20:37;19.20;;;11.03;;
69381;SDS011;56560;50.692;12.844;2022-07-23T07:23:03;20.27;;;11.10;;
69381;SDS011;56560;50.692;12.844;2022-07-23T07:25:29;19.48;;;10.85;;
69381;SDS011;56560;50.692;12.844;2022-07-23T07:27:54;20.10;;;12.40;;
69381;SDS011;56560;50.692;12.844;2022-07-23T07:30:20;23.05;;;11.38;;
69381;SDS011;56560;50.692;12.844;2022-07-23T07:32:46;18.07;;;11.50;;
69381;SDS011;56560;50.692;12.844;2022-07-23T07:35:11;18.05;;;11.43;;
69381;SDS011;56560;50.692;12.844;2022-07-23T07:37:37;17.77;;;10.60;;
69381;SDS011;56560;50.692;12.844;2022-07-23T07:40:03;17.05;;;10.52;;
69381;SDS011;56560;50.692;12.844;2022-07-23T07:42:29;18.67;;;11.23;;
69381;SDS011;56560;50.692;12.844;2022-07-23T07:44:55;17.98;;;10.85;;
69381;SDS011;56560;50.692;12.844;2022-07-23T07:47:20;18.20;;;11.15;;
69381;SDS011;56560;50.692;12.844;2022-07-23T07:49:46;19.10;;;11.40;;
69381;SDS011;56560;50.692;12.844;2022-07-23T07:52:12;19.48;;;11.85;;
69381;SDS011;56560;50.692;12.844;2022-07-23T07:54:37;19.73;;;12.30;;
69381;SDS011;56560;50.692;12.844;2022-07-23T07:57:03;19.60;;;12.33;;
69381;SDS011;56560;50.692;12.844;2022-07-23T07:59:29;18.25;;;11.88;;
69381;SDS011;56560;50.692;12.844;2022-07-23T08:01:54;19.47;;;11.83;;
69381;SDS011;56560;50.692;12.844;2022-07-23T08:04:21;19.20;;;11.93;;
69381;SDS011;56560;50.692;12.844;2022-07-23T08:06:47;18.03;;;11.33;;
69381;SDS011;56560;50.692;12.844;2022-07-23T08:09:12;18.93;;;11.53;;
69381;SDS011;56560;50.692;12.844;2022-07-23T08:11:38;18.08;;;11.40;;
69381;SDS011;56560;50.692;12.844;2022-07-23T08:14:04;18.27;;;11.60;;
69381;SDS011;56560;50.692;12.844;2022-07-23T08:16:29;19.07;;;11.60;;
69381;SDS011;56560;50.692;12.844;2022-07-23T08:18:55;23.23;;;13.35;;
69381;SDS011;56560;50.692;12.844;2022-07-23T08:21:21;17.67;;;11.10;;
69381;SDS011;56560;50.692;12.844;2022-07-23T08:23:47;18.30;;;11.65;;
69381;SDS011;56560;50.692;12.844;2022-07-23T08:26:12;18.03;;;11.73;;
69381;SDS011;56560;50.692;12.844;2022-07-23T08:28:38;19.05;;;12.52;;
69381;SDS011;56560;50.692;12.844;2022-07-23T08:31:04;19.30;;;11.77;;
69381;SDS011;56560;50.692;12.844;2022-07-23T08:33:31;21.02;;;11.68;;
69381;SDS011;56560;50.692;12.844;2022-07-23T08:35:57;18.67;;;11.90;;
69381;SDS011;56560;50.692;12.844;2022-07-23T08:38:23;18.77;;;11.45;;
69381;SDS011;56560;50.692;12.844;2022-07-23T08:40:51;18.48;;;11.75;;
69381;SDS011;56560;50.692;12.844;2022-07-23T08:43:19;17.97;;;11.63;;
69381;SDS011;56560;50.692;12.844;2022-07-23T08:45:48;17.73;;;11.57;;
69381;SDS011;56560;50.692;12.844;2022-07-23T08:48:18;17.08;;;11.18;;
69381;SDS011;56560;50.692;12.844;2022-07-23T08:50:54;17.92;;;11.10;;
69381;SDS011;56560;50.692;12.844;2022-07-23T08:53:22;18.30;;;10.93;;
69381;SDS011;56560;50.692;12.844;2022-07-23T08:55:50;17.53;;;11.03;;
69381;SDS011;56560;50.692;12.844;2022-07-23T08:58:18;18.23;;;10.90;;
69381;SDS011;56560;50.692;12.844;2022-07-23T09:00:44;17.13;;;10.77;;
69381;SDS011;56560;50.692;12.844;2022-07-23T09:03:15;17.30;;;10.30;;
69381;SDS011;56560;50.692;12.844;2022-07-23T09:05:42;18.38;;;12.20;;
69381;SDS011;56560;50.692;12.844;2022-07-23T09:08:09;20.47;;;11.63;;
69381;SDS011;56560;50.692;12.844;2022-07-23T09:10:56;21.95;;;12.07;;
69381;SDS011;56560;50.692;12.844;2022-07-23T09:13:22;17.55;;;10.80;;
69381;SDS011;56560;50.692;12.844;2022-07-23T09:15:59;17.90;;;12.87;;
69381;SDS011;56560;50.692;12.844;2022-07-23T09:18:45;17.50;;;10.90;;
69381;SDS011;56560;50.692;12.844;2022-07-23T09:21:14;15.38;;;10.20;;
69381;SDS011;56560;50.692;12.844;2022-07-23T09:26:33;18.65;;;10.88;;
69381;SDS011;56560;50.692;12.844;2022-07-23T09:31:33;20.13;;;11.23;;
69381;SDS011;56560;50.692;12.844;2022-07-23T09:34:12;20.00;;;11.70;;
69381;SDS011;56560;50.692;12.844;2022-07-23T09:36:41;18.17;;;12.40;;
69381;SDS011;56560;50.692;12.844;2022-07-23T09:39:07;16.02;;;10.38;;
69381;SDS011;56560;50.692;12.844;2022-07-23T09:41:37;15.97;;;10.77;;
69381;SDS011;56560;50.692;12.844;2022-07-23T09:44:10;18.08;;;10.15;;
69381;SDS011;56560;50.692;12.844;2022-07-23T09:46:41;17.88;;;11.13;;
69381;SDS011;56560;50.692;12.844;2022-07-23T09:49:14;18.40;;;10.23;;
69381;SDS011;56560;50.692;12.844;2022-07-23T09:51:46;15.33;;;10.23;;
69381;SDS011;56560;50.692;12.844;2022-07-23T09:54:24;16.92;;;11.23;;
69381;SDS011;56560;50.692;12.844;2022-07-23T09:57:09;14.82;;;9.57;;
69381;SDS011;56560;50.692;12.844;2022-07-23T09:59:41;15.25;;;10.48;;
69381;SDS011;56560;50.692;12.844;2022-07-23T10:02:08;14.93;;;9.57;;
69381;SDS011;56560;50.692;12.844;2022-07-23T10:04:35;14.53;;;9.27;;
69381;SDS011;56560;50.692;12.844;2022-07-23T10:07:02;15.45;;;9.82;;
69381;SDS011;56560;50.692;12.844;2022-07-23T10:09:30;15.77;;;10.65;;
69381;SDS011;56560;50.692;12.844;2022-07-23T10:11:59;15.20;;;10.00;;
69381;SDS011;56560;50.692;12.844;2022-07-23T10:14:32;15.00;;;9.43;;
69381;SDS011;56560;50.692;12.844;2022-07-23T10:17:00;16.35;;;9.88;;
69381;SDS011;56560;50.692;12.844;2022-07-23T10:19:27;14.20;;;9.68;;
69381;SDS011;56560;50.692;12.844;2022-07-23T10:22:04;14.73;;;10.38;;
69381;SDS011;56560;50.692;12.844;2022-07-23T10:24:45;16.20;;;10.43;;
69381;SDS011;56560;50.692;12.844;2022-07-23T10:30:03;15.05;;;9.43;;
69381;SDS011;56560;50.692;12.844;2022-07-23T10:35:43;15.65;;;10.27;;
69381;SDS011;56560;50.692;12.844;2022-07-23T10:38:20;15.25;;;10.02;;
69381;SDS011;56560;50.692;12.844;2022-07-23T10:41:00;17.23;;;10.40;;
69381;SDS011;56560;50.692;12.844;2022-07-23T10:43:28;15.52;;;9.73;;
69381;SDS011;56560;50.692;12.844;2022-07-23T10:45:55;15.13;;;10.00;;
69381;SDS011;56560;50.692;12.844;2022-07-23T10:48:41;19.73;;;10.18;;
69381;SDS011;56560;50.692;12.844;2022-07-23T10:51:11;14.83;;;9.77;;
69381;SDS011;56560;50.692;12.844;2022-07-23T10:57:04;14.48;;;9.80;;
69381;SDS011;56560;50.692;12.844;2022-07-23T10:59:14;15.85;;;10.00;;
69381;SDS011;56560;50.692;12.844;2022-07-23T11:01:40;14.70;;;10.23;;
69381;SDS011;56560;50.692;12.844;2022-07-23T11:04:06;14.10;;;9.88;;
69381;SDS011;56560;50.692;12.844;2022-07-23T11:09:27;14.75;;;10.35;;
69381;SDS011;56560;50.692;12.844;2022-07-23T11:12:31;17.67;;;10.50;;
69381;SDS011;56560;50.692;12.844;2022-07-23T11:17:29;14.18;;;10.20;;
69381;SDS011;56560;50.692;12.844;2022-07-23T11:25:07;15.27;;;9.43;;
69381;SDS011;56560;50.692;12.844;2022-07-23T11:27:40;15.23;;;10.17;;
69381;SDS011;56560;50.692;12.844;2022-07-23T11:30:09;15.68;;;10.02;;
69381;SDS011;56560;50.692;12.844;2022-07-23T11:32:39;16.60;;;9.75;;
69381;SDS011;56560;50.692;12.844;2022-07-23T11:35:20;15.63;;;9.73;;
69381;SDS011;56560;50.692;12.844;2022-07-23T11:37:47;15.88;;;9.73;;
69381;SDS011;56560;50.692;12.844;2022-07-23T11:40:14;15.40;;;10.23;;
69381;SDS011;56560;50.692;12.844;2022-07-23T11:42:51;21.20;;;15.93;;
69381;SDS011;56560;50.692;12.844;2022-07-23T11:45:20;15.25;;;9.05;;
69381;SDS011;56560;50.692;12.844;2022-07-23T11:47:46;15.88;;;9.70;;
69381;SDS011;56560;50.692;12.844;2022-07-23T11:50:11;14.73;;;9.33;;
69381;SDS011;56560;50.692;12.844;2022-07-23T11:52:38;15.02;;;9.05;;
69381;SDS011;56560;50.692;12.844;2022-07-23T11:55:05;14.53;;;8.67;;
69381;SDS011;56560;50.692;12.844;2022-07-23T11:57:35;13.10;;;8.50;;
69381;SDS011;56560;50.692;12.844;2022-07-23T12:02:32;14.90;;;8.65;;
69381;SDS011;56560;50.692;12.844;2022-07-23T12:04:58;15.47;;;9.40;;
69381;SDS011;56560;50.692;12.844;2022-07-23T12:09:53;15.00;;;9.50;;
69381;SDS011;56560;50.692;12.844;2022-07-23T12:12:20;14.32;;;9.30;;
69381;SDS011;56560;50.692;12.844;2022-07-23T12:14:56;14.40;;;9.38;;
69381;SDS011;56560;50.692;12.844;2022-07-23T12:17:27;14.63;;;9.07;;
69381;SDS011;56560;50.692;12.844;2022-07-23T12:19:55;17.35;;;9.60;;
69381;SDS011;56560;50.692;12.844;2022-07-23T12:22:23;14.73;;;9.00;;
69381;SDS011;56560;50.692;12.844;2022-07-23T12:25:00;12.07;;;8.30;;
69381;SDS011;56560;50.692;12.844;2022-07-23T12:27:45;14.05;;;9.05;;
69381;SDS011;56560;50.692;12.844;2022-07-23T12:30:23;14.80;;;9.35;;
69381;SDS011;56560;50.692;12.844;2022-07-23T12:32:52;13.57;;;8.75;;
69381;SDS011;56560;50.692;12.844;2022-07-23T12:35:19;13.90;;;9.73;;
69381;SDS011;56560;50.692;12.844;2022-07-23T12:37:46;15.73;;;9.07;;
69381;SDS011;56560;50.692;12.844;2022-07-23T12:40:27;13.57;;;8.98;;
69381;SDS011;56560;50.692;12.844;2022-07-23T12:43:01;15.55;;;8.98;;
69381;SDS011;56560;50.692;12.844;2022-07-23T12:45:28;14.50;;;8.73;;
69381;SDS011;56560;50.692;12.844;2022-07-23T12:48:08;12.67;;;9.13;;
69381;SDS011;56560;50.692;12.844;2022-07-23T12:50:44;13.35;;;8.63;;
69381;SDS011;56560;50.692;12.844;2022-07-23T12:58:40;14.50;;;9.10;;
69381;SDS011;56560;50.692;12.844;2022-07-23T13:01:06;15.80;;;9.60;;
69381;SDS011;56560;50.692;12.844;2022-07-23T13:03:37;15.25;;;9.13;;
69381;SDS011;56560;50.692;12.844;2022-07-23T13:06:05;16.17;;;9.50;;
69381;SDS011;56560;50.692;12.844;2022-07-23T13:08:33;14.60;;;9.90;;
69381;SDS011;56560;50.692;12.844;2022-07-23T13:11:00;17.75;;;10.40;;
69381;SDS011;56560;50.692;12.844;2022-07-23T13:13:27;16.83;;;9.40;;
69381;SDS011;56560;50.692;12.844;2022-07-23T13:15:55;17.45;;;10.00;;
69381;SDS011;56560;50.692;12.844;2022-07-23T13:18:21;15.52;;;9.88;;
69381;SDS011;56560;50.692;12.844;2022-07-23T13:20:47;14.43;;;9.70;;
69381;SDS011;56560;50.692;12.844;2022-07-23T13:23:14;17.83;;;10.60;;
69381;SDS011;56560;50.692;12.844;2022-07-23T13:25:40;17.10;;;10.80;;
69381;SDS011;56560;50.692;12.844;2022-07-23T13:28:07;15.35;;;9.77;;
69381;SDS011;56560;50.692;12.844;2022-07-23T13:30:33;15.68;;;10.00;;
69381;SDS011;56560;50.692;12.844;2022-07-23T13:32:59;14.47;;;10.23;;
69381;SDS011;56560;50.692;12.844;2022-07-23T13:35:26;15.43;;;9.43;;
69381;SDS011;56560;50.692;12.844;2022-07-23T13:37:51;18.33;;;10.95;;
69381;SDS011;56560;50.692;12.844;2022-07-23T13:40:17;16.93;;;10.47;;
69381;SDS011;56560;50.692;12.844;2022-07-23T13:42:43;17.10;;;11.30;;
69381;SDS011;56560;50.692;12.844;2022-07-23T13:45:08;19.00;;;10.70;;
69381;SDS011;56560;50.692;12.844;2022-07-23T13:47:34;16.80;;;10.40;;
69381;SDS011;56560;50.692;12.844;2022-07-23T13:50:00;16.42;;;11.40;;
69381;SDS011;56560;50.692;12.844;2022-07-23T13:52:25;14.83;;;10.30;;
69381;SDS011;56560;50.692;12.844;2022-07-23T13:54:51;16.58;;;10.23;;
69381;SDS011;56560;50.692;12.844;2022-07-23T13:57:17;15.90;;;11.37;;
69381;SDS011;56560;50.692;12.844;2022-07-23T13:59:43;17.70;;;10.88;;
69381;SDS011;56560;50.692;12.844;2022-07-23T14:02:09;17.85;;;11.27;;
69381;SDS011;56560;50.692;12.844;2022-07-23T14:04:34;15.20;;;10.27;;
69381;SDS011;56560;50.692;12.844;2022-07-23T14:07:00;15.13;;;10.00;;
69381;SDS011;56560;50.692;12.844;2022-07-23T14:09:26;14.95;;;10.90;;
69381;SDS011;56560;50.692;12.844;2022-07-23T14:11:52;15.90;;;11.10;;
69381;SDS011;56560;50.692;12.844;2022-07-23T14:14:18;15.35;;;10.73;;
69381;SDS011;56560;50.692;12.844;2022-07-23T14:16:44;14.32;;;10.65;;
69381;SDS011;56560;50.692;12.844;2022-07-23T14:19:10;17.30;;;10.60;;
69381;SDS011;56560;50.692;12.844;2022-07-23T14:21:36;15.60;;;11.05;;
69381;SDS011;56560;50.692;12.844;2022-07-23T14:24:02;14.70;;;10.90;;
69381;SDS011;56560;50.692;12.844;2022-07-23T14:26:28;13.17;;;10.30;;
69381;SDS011;56560;50.692;12.844;2022-07-23T14:28:54;14.60;;;10.30;;
69381;SDS011;56560;50.692;12.844;2022-07-23T14:31:20;14.32;;;10.25;;
69381;SDS011;56560;50.692;12.844;2022-07-23T14:33:46;15.17;;;10.80;;
69381;SDS011;56560;50.692;12.844;2022-07-23T14:36:12;14.07;;;10.80;;
69381;SDS011;56560;50.692;12.844;2022-07-23T14:38:38;15.38;;;11.50;;
69381;SDS011;56560;50.692;12.844;2022-07-23T14:41:03;16.20;;;12.17;;
69381;SDS011;56560;50.692;12.844;2022-07-23T14:43:31;16.02;;;12.07;;
69381;SDS011;56560;50.692;12.844;2022-07-23T14:45:58;17.60;;;12.00;;
69381;SDS011;56560;50.692;12.844;2022-07-23T14:48:24;16.93;;;12.00;;
69381;SDS011;56560;50.692;12.844;2022-07-23T14:50:50;17.02;;;12.27;;